^^
Your Local Weather - Clay, NY Station Historical Data
Daily Summary for July 6, 2017 Units:  English    Metric   Both
« Previous Day
Next Day »
Daily Weekly Monthly Yearly Custom
  High: Low: Average:
Temperature: 80.8 °F 65.6 °F 73.9 °F
Dew Point: 67.4 °F 58.2 °F 63.3 °F
Humidity: 86% 62% 70%
Wind Speed: 6.0mph 0.0mph 2.4mph
Wind Gust: 9.0mph - -
Wind- - South
Pressure: 30.04 in 29.84 in -
Precipitation: 0.01 in    
Historical Graphs
 
 
Tabular Data for July 6, 2017
Time Temperature Dew Point Pressure Wind Wind Speed Wind Gust Humidity Rainfall Rate (Hourly) solar
00:04 66.1 °F 60.8 °F 30.04 in Calm     83% 0.00 in 0 W/m2
00:10 66.0 °F 61.0 °F 30.03 in Calm     84% 0.00 in 0 W/m2
00:16 66.0 °F 61.0 °F 30.04 in Calm     84% 0.00 in 0 W/m2
00:22 65.9 °F 61.3 °F 30.04 in Calm     85% 0.00 in 0 W/m2
00:28 65.8 °F 61.2 °F 30.04 in Calm     85% 0.00 in 0 W/m2
00:34 65.8 °F 61.5 °F 30.03 in Calm     86% 0.00 in 0 W/m2
00:40 65.8 °F 61.5 °F 30.03 in Calm     86% 0.00 in 0 W/m2
00:46 65.7 °F 61.4 °F 30.03 in Calm     86% 0.00 in 0 W/m2
00:52 65.6 °F 61.3 °F 30.03 in Calm     86% 0.00 in 0 W/m2
00:58 65.6 °F 61.3 °F 30.02 in Calm     86% 0.00 in 0 W/m2
01:04 65.8 °F 61.2 °F 30.02 in Calm     85% 0.00 in 0 W/m2
01:10 66.0 °F 61.0 °F 30.02 in Calm     84% 0.00 in 0 W/m2
01:16 66.9 °F 61.2 °F 30.02 in SSE 1.0 mph 2.0 mph 82% 0.00 in 0 W/m2
01:22 68.5 °F 61.0 °F 30.02 in South 1.0 mph 4.0 mph 77% 0.00 in 0 W/m2
01:28 70.3 °F 61.2 °F 30.02 in South 1.0 mph 4.0 mph 73% 0.00 in 0 W/m2
01:34 71.4 °F 61.1 °F 30.02 in SSW 1.0 mph 2.0 mph 70% 0.00 in 0 W/m2
01:40 72.1 °F 61.0 °F 30.02 in SSW 2.0 mph 2.0 mph 68% 0.00 in 0 W/m2
01:46 72.3 °F 60.7 °F 30.02 in SSW 1.0 mph 3.0 mph 67% 0.00 in 0 W/m2
01:52 72.6 °F 60.6 °F 30.02 in South 2.0 mph 4.0 mph 66% 0.00 in 0 W/m2
01:58 72.3 °F 61.6 °F 30.02 in South 1.0 mph 4.0 mph 69% 0.00 in 0 W/m2
02:04 70.8 °F 61.3 °F 30.02 in Calm   1.0 mph 72% 0.00 in 0 W/m2
02:10 70.4 °F 60.9 °F 30.02 in SW 1.0 mph 1.0 mph 72% 0.00 in 0 W/m2
02:16 71.4 °F 60.3 °F 30.02 in SSW 1.0 mph 7.0 mph 68% 0.00 in 0 W/m2
02:22 72.4 °F 60.4 °F 30.02 in South 3.0 mph 3.0 mph 66% 0.00 in 0 W/m2
02:28 72.7 °F 59.8 °F 30.02 in South 2.0 mph 3.0 mph 64% 0.00 in 0 W/m2
02:34 73.1 °F 59.8 °F 30.01 in SW 3.0 mph 6.0 mph 63% 0.00 in 0 W/m2
02:40 73.2 °F 59.8 °F 30.01 in SSW 2.0 mph 2.0 mph 63% 0.00 in 0 W/m2
02:46 73.0 °F 59.7 °F 30.01 in South 2.0 mph 4.0 mph 63% 0.00 in 0 W/m2
02:52 72.8 °F 59.5 °F 30.01 in SW 2.0 mph 3.0 mph 63% 0.00 in 0 W/m2
02:58 72.7 °F 59.4 °F 30.00 in SW 2.0 mph 5.0 mph 63% 0.00 in 0 W/m2
03:04 72.7 °F 58.9 °F 30.00 in SSE 2.0 mph 4.0 mph 62% 0.00 in 0 W/m2
03:10 72.4 °F 60.0 °F 30.00 in SSE 1.0 mph 1.0 mph 65% 0.00 in 0 W/m2
03:16 72.0 °F 59.2 °F 30.00 in Calm   2.0 mph 64% 0.00 in 0 W/m2
03:22 72.1 °F 58.8 °F 30.00 in SW 2.0 mph 5.0 mph 63% 0.00 in 0 W/m2
03:28 72.3 °F 59.0 °F 30.00 in South 2.0 mph 5.0 mph 63% 0.00 in 0 W/m2
03:34 72.2 °F 58.5 °F 30.00 in South 2.0 mph 3.0 mph 62% 0.00 in 0 W/m2
03:40 72.3 °F 58.5 °F 30.00 in South 2.0 mph 2.0 mph 62% 0.00 in 0 W/m2
03:46 70.9 °F 59.4 °F 30.00 in Calm   2.0 mph 67% 0.00 in 0 W/m2
03:52 69.9 °F 59.7 °F 30.00 in Calm     70% 0.00 in 0 W/m2
03:58 69.5 °F 58.9 °F 30.00 in SSE 1.0 mph 1.0 mph 69% 0.00 in 0 W/m2
04:04 69.4 °F 59.6 °F 30.00 in SE 1.0 mph 1.0 mph 71% 0.00 in 0 W/m2
04:10 68.9 °F 59.5 °F 30.00 in SSW 1.0 mph 1.0 mph 72% 0.00 in 0 W/m2
04:16 68.8 °F 59.0 °F 30.00 in Calm   4.0 mph 71% 0.00 in 0 W/m2
04:22 69.8 °F 59.2 °F 30.00 in SSE 1.0 mph 2.0 mph 69% 0.00 in 0 W/m2
04:28 70.3 °F 58.4 °F 29.99 in South 1.0 mph 3.0 mph 66% 0.00 in 0 W/m2
04:34 70.5 °F 58.6 °F 30.00 in SSW 1.0 mph 4.0 mph 66% 0.00 in 0 W/m2
04:40 70.1 °F 58.2 °F 30.00 in WSW 1.0 mph 3.0 mph 66% 0.00 in 0 W/m2
04:46 70.5 °F 58.2 °F 30.00 in SW 2.0 mph 7.0 mph 65% 0.00 in 0 W/m2
05:16 69.5 °F 58.5 °F 30.00 in Calm   2.0 mph 68% 0.00 in 0 W/m2
05:22 70.3 °F 58.4 °F 30.00 in SSW 1.0 mph 2.0 mph 66% 0.00 in 0 W/m2
05:26 70.8 °F 59.3 °F 30.00 in SSW 1.0 mph 2.0 mph 67% 0.00 in 0 W/m2
05:28 70.8 °F 58.9 °F 30.00 in SSW 1.0 mph 2.0 mph 66% 0.00 in 0 W/m2
05:30 70.8 °F 58.9 °F 30.00 in SSW 1.0 mph 1.0 mph 66% 0.00 in 0 W/m2
05:36 71.1 °F 58.7 °F 30.00 in SSW 1.0 mph 1.0 mph 65% 0.00 in 0 W/m2
05:38 71.2 °F 58.4 °F 30.00 in SSW 1.0 mph 1.0 mph 64% 0.00 in 5 W/m2
05:48 71.4 °F 59.0 °F 30.00 in SSW 1.0 mph 3.0 mph 65% 0.00 in 9 W/m2
05:54 71.7 °F 58.4 °F 30.00 in SW 2.0 mph 7.0 mph 63% 0.00 in 11 W/m2
05:56 71.7 °F 58.9 °F 30.00 in SW 2.0 mph 7.0 mph 64% 0.00 in 11 W/m2
06:02 71.9 °F 58.6 °F 30.00 in SW 2.0 mph 6.0 mph 63% 0.00 in 12 W/m2
06:08 71.7 °F 59.3 °F 30.00 in SW 2.0 mph 6.0 mph 65% 0.00 in 16 W/m2
06:12 71.5 °F 60.4 °F 30.00 in SW 1.0 mph 2.0 mph 68% 0.00 in 18 W/m2
06:18 70.6 °F 59.9 °F 30.00 in SE 1.0 mph 2.0 mph 69% 0.00 in 23 W/m2
06:24 70.2 °F 60.4 °F 30.00 in SE 1.0 mph 1.0 mph 71% 0.00 in 23 W/m2
06:30 69.9 °F 60.1 °F 30.00 in SSE 1.0 mph 3.0 mph 71% 0.00 in 23 W/m2
06:42 70.0 °F 60.2 °F 30.00 in South 1.0 mph 3.0 mph 71% 0.00 in 39 W/m2
06:48 70.3 °F 60.4 °F 29.99 in SE 2.0 mph 3.0 mph 71% 0.00 in 46 W/m2
06:54 70.3 °F 60.8 °F 30.00 in SE 2.0 mph 4.0 mph 72% 0.00 in 62 W/m2
07:00 70.3 °F 60.4 °F 30.00 in SSE 3.0 mph 3.0 mph 71% 0.00 in 63 W/m2
07:06 70.3 °F 60.4 °F 29.99 in South 3.0 mph 3.0 mph 71% 0.00 in 62 W/m2
07:12 70.3 °F 61.2 °F 29.99 in SSE 2.0 mph 3.0 mph 73% 0.00 in 74 W/m2
07:18 70.2 °F 61.1 °F 30.00 in South 1.0 mph 3.0 mph 73% 0.00 in 88 W/m2
07:24 70.3 °F 61.2 °F 30.00 in SE 1.0 mph 3.0 mph 73% 0.00 in 88 W/m2
07:30 70.3 °F 61.2 °F 30.00 in SE 1.0 mph 2.0 mph 73% 0.00 in 79 W/m2
07:42 70.5 °F 61.4 °F 30.00 in SE 2.0 mph 4.0 mph 73% 0.00 in 81 W/m2
07:48 70.5 °F 61.4 °F 30.00 in SSW 3.0 mph 4.0 mph 73% 0.00 in 88 W/m2
07:54 70.6 °F 61.5 °F 30.00 in SSE 2.0 mph 5.0 mph 73% 0.00 in 107 W/m2
08:00 70.6 °F 61.5 °F 30.00 in SE 2.0 mph 3.0 mph 73% 0.00 in 105 W/m2
08:06 70.8 °F 61.3 °F 30.00 in South 2.0 mph 3.0 mph 72% 0.00 in 114 W/m2
08:12 70.9 °F 61.8 °F 30.00 in South 2.0 mph 3.0 mph 73% 0.00 in 118 W/m2
08:18 71.0 °F 61.5 °F 30.00 in South 1.0 mph 3.0 mph 72% 0.00 in 121 W/m2
08:24 71.2 °F 62.1 °F 30.00 in Calm     73% 0.00 in 118 W/m2
08:30 71.2 °F 61.7 °F 30.00 in Calm   1.0 mph 72% 0.00 in 121 W/m2
08:36 71.2 °F 61.7 °F 30.00 in SE 1.0 mph 2.0 mph 72% 0.00 in 132 W/m2
08:42 71.2 °F 61.7 °F 30.00 in SE 1.0 mph 1.0 mph 72% 0.00 in 135 W/m2
08:46 71.2 °F 61.3 °F 30.00 in SSE 2.0 mph 3.0 mph 71% 0.00 in 141 W/m2
08:52 71.2 °F 61.3 °F 30.00 in SSE 3.0 mph 4.0 mph 71% 0.00 in 139 W/m2
08:58 71.1 °F 61.2 °F 30.00 in SSE 3.0 mph 4.0 mph 71% 0.00 in 146 W/m2
09:04 71.2 °F 61.3 °F 30.00 in SE 3.0 mph 4.0 mph 71% 0.00 in 156 W/m2
09:10 71.3 °F 61.4 °F 30.00 in SSW 2.0 mph 2.0 mph 71% 0.00 in 190 W/m2
09:16 71.5 °F 61.2 °F 30.00 in SSE 2.0 mph 4.0 mph 70% 0.00 in 179 W/m2
09:22 71.7 °F 61.4 °F 30.01 in SSW 2.0 mph 3.0 mph 70% 0.00 in 220 W/m2
09:28 72.0 °F 61.7 °F 30.00 in SSE 2.0 mph 5.0 mph 70% 0.00 in 188 W/m2
09:34 72.1 °F 61.8 °F 30.00 in South 3.0 mph 4.0 mph 70% 0.00 in 160 W/m2
09:40 72.2 °F 61.5 °F 30.00 in SSW 3.0 mph 3.0 mph 69% 0.00 in 102 W/m2
09:46 72.2 °F 61.9 °F 30.00 in SSE 2.0 mph 4.0 mph 70% 0.00 in 111 W/m2
09:52 72.2 °F 61.9 °F 30.00 in SSE 2.0 mph 2.0 mph 70% 0.00 in 90 W/m2
09:58 72.3 °F 62.4 °F 30.00 in Calm   2.0 mph 71% 0.00 in 98 W/m2
10:04 72.3 °F 63.5 °F 30.00 in Calm     74% 0.00 in 174 W/m2
10:10 72.4 °F 63.3 °F 30.00 in Calm     73% 0.00 in 239 W/m2
10:16 72.8 °F 62.8 °F 30.00 in Calm     71% 0.00 in 186 W/m2
10:22 73.3 °F 63.3 °F 30.00 in Calm   1.0 mph 71% 0.00 in 236 W/m2
10:28 74.0 °F 63.6 °F 30.00 in Calm   1.0 mph 70% 0.00 in 279 W/m2
10:34 74.4 °F 63.1 °F 30.00 in SSE 1.0 mph 4.0 mph 68% 0.00 in 295 W/m2
10:40 74.7 °F 63.0 °F 30.00 in SSE 2.0 mph 2.0 mph 67% 0.00 in 192 W/m2
10:46 74.6 °F 62.5 °F 30.00 in SW 3.0 mph 4.0 mph 66% 0.00 in 148 W/m2
10:52 74.5 °F 63.7 °F 29.99 in South 2.0 mph 3.0 mph 69% 0.00 in 181 W/m2
11:00 74.5 °F 62.8 °F 29.99 in South 1.0 mph 1.0 mph 67% 0.00 in 118 W/m2
11:06 74.4 °F 63.1 °F 29.99 in SSE 1.0 mph 3.0 mph 68% 0.00 in 118 W/m2
11:12 74.3 °F 63.1 °F 29.99 in SSE 1.0 mph 2.0 mph 68% 0.00 in 81 W/m2
11:18 74.1 °F 63.3 °F 29.99 in SSW 1.0 mph 2.0 mph 69% 0.00 in 63 W/m2
11:24 73.5 °F 64.3 °F 29.99 in South 1.0 mph 3.0 mph 73% 0.00 in 151 W/m2
11:30 72.9 °F 65.6 °F 29.98 in Calm     78% 0.00 in 118 W/m2
11:36 71.9 °F 65.8 °F 29.98 in Calm     81% 0.00 in 105 W/m2
11:42 71.4 °F 66.0 °F 29.98 in Calm     83% 0.00 in 146 W/m2
11:48 71.4 °F 66.7 °F 29.98 in Calm     85% 0.00 in 221 W/m2
11:54 71.9 °F 66.5 °F 29.97 in Calm   1.0 mph 83% 0.00 in 193 W/m2
12:00 72.8 °F 65.5 °F 29.98 in SSE 1.0 mph 1.0 mph 78% 0.00 in 160 W/m2
12:06 73.8 °F 65.0 °F 29.98 in South 2.0 mph 3.0 mph 74% 0.00 in 214 W/m2
12:12 74.6 °F 65.0 °F 29.97 in South 2.0 mph 3.0 mph 72% 0.00 in 512 W/m2
12:18 76.4 °F 65.1 °F 29.97 in SSW 3.0 mph 4.0 mph 68% 0.00 in 752 W/m2
12:24 76.5 °F 64.7 °F 29.97 in SW 3.0 mph 7.0 mph 67% 0.00 in 404 W/m2
12:30 76.3 °F 65.0 °F 29.97 in WSW 3.0 mph 3.0 mph 68% 0.00 in 306 W/m2
12:36 75.6 °F 64.3 °F 29.97 in SSW 4.0 mph 6.0 mph 68% 0.00 in 269 W/m2
12:42 75.4 °F 64.5 °F 29.97 in SSW 4.0 mph 4.0 mph 69% 0.00 in 281 W/m2
12:48 75.4 °F 64.5 °F 29.97 in SSW 3.0 mph 4.0 mph 69% 0.00 in 236 W/m2
12:54 75.3 °F 64.4 °F 29.97 in South 4.0 mph 6.0 mph 69% 0.00 in 295 W/m2
13:00 75.2 °F 64.7 °F 29.97 in SW 4.0 mph 4.0 mph 70% 0.00 in 295 W/m2
13:06 75.6 °F 65.1 °F 29.96 in SSW 4.0 mph 5.0 mph 70% 0.00 in 487 W/m2
13:12 76.0 °F 65.1 °F 29.96 in SSE 5.0 mph 5.0 mph 69% 0.00 in 687 W/m2
13:18 76.0 °F 64.7 °F 29.96 in SW 6.0 mph 8.0 mph 68% 0.00 in 659 W/m2
13:24 76.3 °F 65.4 °F 29.96 in SSE 6.0 mph 7.0 mph 69% 0.00 in 629 W/m2
13:30 76.2 °F 64.9 °F 29.96 in SW 6.0 mph 6.0 mph 68% 0.00 in 454 W/m2
13:36 76.3 °F 65.4 °F 29.95 in South 5.0 mph 6.0 mph 69% 0.00 in 438 W/m2
13:42 76.1 °F 65.2 °F 29.95 in SW 5.0 mph 7.0 mph 69% 0.00 in 538 W/m2
13:48 76.2 °F 65.3 °F 29.95 in South 5.0 mph 7.0 mph 69% 0.00 in 745 W/m2
13:54 76.9 °F 66.4 °F 29.95 in SE 5.0 mph 5.0 mph 70% 0.00 in 1048 W/m2
14:00 76.9 °F 64.7 °F 29.96 in SSE 5.0 mph 8.0 mph 66% 0.00 in 563 W/m2
14:06 77.0 °F 65.2 °F 29.95 in SE 5.0 mph 8.0 mph 67% 0.00 in 309 W/m2
14:12 76.5 °F 65.6 °F 29.95 in South 5.0 mph 8.0 mph 69% 0.00 in 341 W/m2
14:18 77.3 °F 66.3 °F 29.95 in SSW 5.0 mph 9.0 mph 69% 0.00 in 747 W/m2
14:24 77.5 °F 65.2 °F 29.95 in SSW 5.0 mph 5.0 mph 66% 0.00 in 455 W/m2
14:30 77.5 °F 65.7 °F 29.95 in South 4.0 mph 4.0 mph 67% 0.00 in 524 W/m2
14:36 77.8 °F 65.5 °F 29.94 in SSW 5.0 mph 7.0 mph 66% 0.00 in 612 W/m2
14:42 79.0 °F 66.2 °F 29.94 in WSW 4.0 mph 4.0 mph 65% 0.00 in 496 W/m2
14:48 79.5 °F 66.7 °F 29.94 in South 4.0 mph 4.0 mph 65% 0.00 in 891 W/m2
14:54 79.2 °F 66.0 °F 29.94 in West 4.0 mph 7.0 mph 64% 0.00 in 921 W/m2
15:00 78.6 °F 65.4 °F 29.94 in South 4.0 mph 4.0 mph 64% 0.00 in 318 W/m2
15:06 78.9 °F 65.7 °F 29.94 in SW 3.0 mph 4.0 mph 64% 0.00 in 374 W/m2
15:12 79.2 °F 66.4 °F 29.94 in SSE 4.0 mph 7.0 mph 65% 0.00 in 758 W/m2
15:18 79.0 °F 65.8 °F 29.93 in South 5.0 mph 7.0 mph 64% 0.00 in 425 W/m2
15:24 78.9 °F 66.6 °F 29.93 in SE 4.0 mph 6.0 mph 66% 0.00 in 290 W/m2
15:30 79.2 °F 67.3 °F 29.92 in SSE 4.0 mph 8.0 mph 67% 0.00 in 904 W/m2
15:36 80.0 °F 67.2 °F 29.92 in ESE 4.0 mph 8.0 mph 65% 0.00 in 264 W/m2
15:42 79.4 °F 66.2 °F 29.92 in SSW 3.0 mph 4.0 mph 64% 0.00 in 316 W/m2
15:48 79.4 °F 66.2 °F 29.92 in South 4.0 mph 5.0 mph 64% 0.00 in 339 W/m2
15:54 79.2 °F 66.4 °F 29.92 in SSE 4.0 mph 5.0 mph 65% 0.00 in 260 W/m2
16:00 79.1 °F 66.8 °F 29.92 in SSE 3.0 mph 3.0 mph 66% 0.00 in 248 W/m2
16:06 79.2 °F 66.4 °F 29.92 in SSE 4.0 mph 4.0 mph 65% 0.00 in 332 W/m2
16:12 80.2 °F 66.9 °F 29.91 in South 4.0 mph 5.0 mph 64% 0.00 in 795 W/m2
16:18 80.7 °F 67.4 °F 29.91 in SW 5.0 mph 7.0 mph 64% 0.00 in 751 W/m2
16:24 80.8 °F 67.0 °F 29.91 in SW 5.0 mph 7.0 mph 63% 0.00 in 675 W/m2
16:30 80.3 °F 66.6 °F 29.89 in SW 5.0 mph 5.0 mph 63% 0.00 in 494 W/m2
16:36 80.5 °F 67.2 °F 29.89 in South 5.0 mph 5.0 mph 64% 0.00 in 392 W/m2
16:42 80.5 °F 67.2 °F 29.89 in SW 5.0 mph 6.0 mph 64% 0.00 in 244 W/m2
16:48 80.1 °F 66.8 °F 29.88 in SSE 5.0 mph 7.0 mph 64% 0.00 in 374 W/m2
16:54 80.2 °F 66.9 °F 29.89 in SSW 4.0 mph 4.0 mph 64% 0.00 in 332 W/m2
17:00 80.5 °F 66.7 °F 29.89 in SW 4.0 mph 6.0 mph 63% 0.00 in 438 W/m2
17:06 80.5 °F 66.3 °F 29.88 in South 5.0 mph 6.0 mph 62% 0.00 in 220 W/m2
17:12 80.3 °F 66.6 °F 29.88 in SSW 5.0 mph 5.0 mph 63% 0.00 in 244 W/m2
17:18 80.2 °F 66.0 °F 29.88 in SW 6.0 mph 6.0 mph 62% 0.00 in 237 W/m2
17:24 80.3 °F 66.6 °F 29.88 in SW 5.0 mph 7.0 mph 63% 0.00 in 200 W/m2
17:30 80.2 °F 66.0 °F 29.88 in SSE 5.0 mph 5.0 mph 62% 0.00 in 169 W/m2
17:36 80.0 °F 66.3 °F 29.88 in SSE 5.0 mph 7.0 mph 63% 0.00 in 167 W/m2
17:44 79.6 °F 66.3 °F 29.88 in SSW 5.0 mph 7.0 mph 64% 0.00 in 165 W/m2
17:50 79.5 °F 66.7 °F 29.87 in South 5.0 mph 6.0 mph 65% 0.00 in 162 W/m2
17:56 79.5 °F 66.7 °F 29.87 in SSW 5.0 mph 6.0 mph 65% 0.00 in 178 W/m2
18:02 79.6 °F 66.3 °F 29.86 in South 4.0 mph 7.0 mph 64% 0.00 in 118 W/m2
18:08 79.4 °F 66.6 °F 29.86 in SSE 5.0 mph 7.0 mph 65% 0.00 in 125 W/m2
18:14 79.2 °F 66.4 °F 29.86 in SE 5.0 mph 5.0 mph 65% 0.00 in 111 W/m2
18:20 79.0 °F 66.2 °F 29.86 in SSW 5.0 mph 7.0 mph 65% 0.00 in 130 W/m2
18:26 79.0 °F 66.7 °F 29.86 in SW 4.0 mph 7.0 mph 66% 0.00 in 137 W/m2
18:32 78.9 °F 66.1 °F 29.86 in South 4.0 mph 5.0 mph 65% 0.00 in 120 W/m2
18:38 78.7 °F 65.9 °F 29.86 in South 5.0 mph 7.0 mph 65% 0.00 in 88 W/m2
18:44 78.6 °F 65.8 °F 29.86 in South 4.0 mph 4.0 mph 65% 0.00 in 91 W/m2
18:50 78.4 °F 65.7 °F 29.86 in SW 4.0 mph 5.0 mph 65% 0.00 in 107 W/m2
18:56 78.4 °F 65.7 °F 29.86 in SSW 5.0 mph 6.0 mph 65% 0.00 in 93 W/m2
19:02 78.3 °F 65.6 °F 29.86 in SW 5.0 mph 5.0 mph 65% 0.00 in 91 W/m2
19:08 78.3 °F 65.6 °F 29.86 in SW 4.0 mph 5.0 mph 65% 0.00 in 93 W/m2
19:14 78.3 °F 65.6 °F 29.86 in SW 3.0 mph 6.0 mph 65% 0.00 in 84 W/m2
19:20 78.2 °F 65.5 °F 29.86 in South 4.0 mph 5.0 mph 65% 0.00 in 77 W/m2
19:26 78.0 °F 65.3 °F 29.86 in SSE 5.0 mph 6.0 mph 65% 0.00 in 74 W/m2
19:32 77.9 °F 65.6 °F 29.86 in South 4.0 mph 5.0 mph 66% 0.00 in 63 W/m2
19:38 77.8 °F 65.5 °F 29.86 in SW 3.0 mph 5.0 mph 66% 0.00 in 51 W/m2
19:42 77.7 °F 65.4 °F 29.86 in SW 4.0 mph 4.0 mph 66% 0.00 in 51 W/m2
19:48 77.5 °F 65.2 °F 29.86 in SW 4.0 mph 6.0 mph 66% 0.00 in 51 W/m2
19:54 77.3 °F 65.1 °F 29.86 in SSE 5.0 mph 7.0 mph 66% 0.00 in 42 W/m2
20:00 77.1 °F 64.9 °F 29.86 in South 5.0 mph 5.0 mph 66% 0.00 in 32 W/m2
20:06 76.9 °F 64.7 °F 29.86 in South 5.0 mph 5.0 mph 66% 0.00 in 30 W/m2
20:12 76.8 °F 65.0 °F 29.86 in SSE 4.0 mph 5.0 mph 67% 0.00 in 28 W/m2
20:18 76.6 °F 64.8 °F 29.86 in SSE 3.0 mph 5.0 mph 67% 0.00 in 16 W/m2
20:24 76.4 °F 64.6 °F 29.85 in SSW 4.0 mph 6.0 mph 67% 0.00 in 12 W/m2
20:30 76.2 °F 64.9 °F 29.85 in SW 4.0 mph 4.0 mph 68% 0.00 in 11 W/m2
20:36 76.1 °F 64.8 °F 29.85 in SSE 4.0 mph 7.0 mph 68% 0.00 in 5 W/m2
20:42 75.9 °F 64.6 °F 29.85 in SW 4.0 mph 4.0 mph 68% 0.00 in 0 W/m2
20:48 75.7 °F 64.8 °F 29.84 in WSW 3.0 mph 4.0 mph 69% 0.00 in 0 W/m2
20:54 75.4 °F 64.9 °F 29.84 in SSW 2.0 mph 3.0 mph 70% 0.00 in 0 W/m2
21:00 75.2 °F 64.7 °F 29.84 in SSE 1.0 mph 1.0 mph 70% 0.00 in 0 W/m2
21:06 75.0 °F 65.0 °F 29.84 in SSW 1.0 mph 2.0 mph 71% 0.00 in 0 W/m2
21:12 74.8 °F 64.8 °F 29.84 in SSW 1.0 mph 3.0 mph 71% 0.00 in 0 W/m2
21:18 74.6 °F 65.0 °F 29.84 in South 2.0 mph 3.0 mph 72% 0.00 in 0 W/m2
21:24 74.4 °F 64.8 °F 29.84 in SSW 1.0 mph 1.0 mph 72% 0.00 in 0 W/m2
21:30 74.2 °F 64.6 °F 29.84 in SSW 2.0 mph 4.0 mph 72% 0.00 in 0 W/m2
21:36 74.1 °F 64.9 °F 29.85 in SW 2.0 mph 4.0 mph 73% 0.00 in 0 W/m2
21:42 74.1 °F 64.9 °F 29.85 in SSW 2.0 mph 3.0 mph 73% 0.00 in 0 W/m2
21:48 74.1 °F 64.9 °F 29.85 in SSW 2.0 mph 3.0 mph 73% 0.00 in 0 W/m2
21:54 74.0 °F 64.8 °F 29.86 in SSW 1.0 mph 2.0 mph 73% 0.00 in 0 W/m2
22:00 73.9 °F 64.7 °F 29.86 in Calm     73% 0.00 in 0 W/m2
22:06 73.7 °F 64.9 °F 29.85 in SW 1.0 mph 6.0 mph 74% 0.00 in 0 W/m2
22:12 73.7 °F 64.9 °F 29.86 in WSW 2.0 mph 2.0 mph 74% 0.00 in 0 W/m2
22:18 73.7 °F 64.9 °F 29.86 in SSW 3.0 mph 5.0 mph 74% 0.00 in 0 W/m2
22:24 73.6 °F 64.8 °F 29.86 in SSW 2.0 mph 3.0 mph 74% 0.00 in 0 W/m2
22:30 73.7 °F 64.9 °F 29.86 in SW 2.0 mph 2.0 mph 74% 0.00 in 0 W/m2
22:36 73.5 °F 64.7 °F 29.86 in South 2.0 mph 2.0 mph 74% 0.00 in 0 W/m2
22:42 73.3 °F 64.5 °F 29.86 in South 1.0 mph 2.0 mph 74% 0.00 in 0 W/m2
22:48 73.1 °F 64.7 °F 29.86 in SW 1.0 mph 2.0 mph 75% 0.00 in 0 W/m2
22:54 73.1 °F 64.7 °F 29.86 in South 2.0 mph 3.0 mph 75% 0.00 in 0 W/m2
23:00 73.0 °F 64.6 °F 29.86 in SSW 2.0 mph 3.0 mph 75% 0.00 in 0 W/m2
23:06 73.0 °F 64.6 °F 29.85 in South 2.0 mph 5.0 mph 75% 0.00 in 0 W/m2
23:12 73.0 °F 64.6 °F 29.85 in South 2.0 mph 2.0 mph 75% 0.00 in 0 W/m2
23:18 73.1 °F 64.7 °F 29.85 in South 2.0 mph 5.0 mph 75% 0.00 in 0 W/m2
23:24 73.0 °F 64.6 °F 29.85 in South 3.0 mph 3.0 mph 75% 0.00 in 0 W/m2
23:30 73.0 °F 64.6 °F 29.85 in South 2.0 mph 2.0 mph 75% 0.00 in 0 W/m2
23:36 72.8 °F 64.8 °F 29.86 in SSW 1.0 mph 3.0 mph 76% 0.00 in 0 W/m2
23:42 72.7 °F 64.7 °F 29.85 in SSW 2.0 mph 3.0 mph 76% 0.00 in 0 W/m2
23:48 72.7 °F 64.7 °F 29.84 in SSE 2.0 mph 3.0 mph 76% 0.00 in 0 W/m2
23:54 72.6 °F 64.2 °F 29.84 in SSE 2.0 mph 4.0 mph 75% 0.00 in 0 W/m2
Country Meadow, Clay, NY, USA
Compliments of Weather Underground - 2 mb